Time;durP1;ratioP1;P1;durP2;ratioP2;P2;SDS_P1;SDS_P2;PMS_P1;PMS_P2;Temp;Humidity;BMP_temperature;BMP_pressure;BME280_temperature;BME280_humidity;BME280_pressure;Samples;Min_cycle;Max_cycle;Signal;HPM_P1;HPM_P2
2023/12/24 00:00:27;;;;;;;20.08;3.83;;;9.10;99.90;;;;;;5072122;28;20037;-68
2023/12/24 00:02:53;;;;;;;18.73;3.75;;;9.10;99.90;;;;;;5071812;28;20044;-68
2023/12/24 00:05:19;;;;;;;20.60;3.58;;;9.10;99.90;;;;;;5071917;28;20040;-68
2023/12/24 00:07:44;;;;;;;16.92;3.20;;;9.10;99.90;;;;;;5072125;28;20110;-68
2023/12/24 00:10:10;;;;;;;14.27;3.10;;;9.10;99.90;;;;;;5071850;28;20452;-68
2023/12/24 00:12:37;;;;;;;13.63;2.75;;;9.00;99.90;;;;;;5071747;28;20121;-68
2023/12/24 00:15:03;;;;;;;19.40;3.55;;;9.10;99.90;;;;;;5071810;28;20052;-68
2023/12/24 00:17:31;;;;;;;19.17;3.85;;;9.10;99.90;;;;;;5073293;28;20048;-68
2023/12/24 00:19:58;;;;;;;19.75;3.90;;;9.10;99.90;;;;;;5072045;28;20094;-68
2023/12/24 00:22:23;;;;;;;19.83;3.95;;;9.10;99.90;;;;;;5073161;28;20490;-68
2023/12/24 00:24:49;;;;;;;17.45;3.63;;;9.20;99.90;;;;;;5073128;28;20045;-68
2023/12/24 00:27:15;;;;;;;15.07;3.20;;;9.20;99.90;;;;;;5071982;28;20037;-68
2023/12/24 00:29:40;;;;;;;13.32;3.45;;;9.10;99.90;;;;;;5073238;28;20493;-68
2023/12/24 00:32:06;;;;;;;16.10;3.40;;;9.10;99.90;;;;;;5071598;28;20044;-68
2023/12/24 00:34:32;;;;;;;19.48;3.45;;;9.10;99.90;;;;;;5071645;28;20072;-68
2023/12/24 00:36:57;;;;;;;19.25;3.85;;;9.10;99.90;;;;;;5072902;28;20040;-68
2023/12/24 00:39:23;;;;;;;16.42;3.47;;;9.10;99.90;;;;;;5073088;28;20032;-68
2023/12/24 00:41:48;;;;;;;17.92;4.10;;;9.20;99.90;;;;;;5071775;28;20408;-68
2023/12/24 00:44:14;;;;;;;18.38;4.07;;;9.10;99.90;;;;;;5071463;28;20074;-68
2023/12/24 00:46:39;;;;;;;15.02;3.17;;;9.10;99.90;;;;;;5072736;28;20032;-68
2023/12/24 00:49:05;;;;;;;18.95;3.45;;;9.10;99.90;;;;;;5072736;28;20037;-68
2023/12/24 00:51:31;;;;;;;18.50;3.97;;;9.20;99.90;;;;;;5071407;28;20533;-68
2023/12/24 00:53:56;;;;;;;16.23;3.60;;;9.10;99.90;;;;;;5072929;28;20082;-68
2023/12/24 00:56:22;;;;;;;21.95;4.15;;;9.10;99.90;;;;;;5071402;28;20037;-68
2023/12/24 00:58:47;;;;;;;16.77;4.35;;;9.20;99.90;;;;;;5072897;28;20048;-68
2023/12/24 01:01:13;;;;;;;20.48;3.95;;;9.10;99.90;;;;;;5072830;28;20043;-68
2023/12/24 01:03:38;;;;;;;18.40;3.88;;;9.20;99.90;;;;;;5075975;28;20562;-68
2023/12/24 01:06:04;;;;;;;22.65;4.65;;;9.10;99.90;;;;;;5075356;28;20040;-68
2023/12/24 01:08:30;;;;;;;17.45;3.75;;;9.20;99.90;;;;;;5076237;28;20572;-68
2023/12/24 01:10:56;;;;;;;18.38;3.42;;;9.10;99.90;;;;;;5074989;28;20489;-68
2023/12/24 01:13:22;;;;;;;21.50;4.30;;;9.10;99.90;;;;;;5076389;28;20040;-68
2023/12/24 01:15:48;;;;;;;19.10;3.75;;;9.10;99.90;;;;;;5074886;28;20052;-68
2023/12/24 01:18:14;;;;;;;17.75;3.30;;;9.10;99.90;;;;;;5076400;28;20036;-68
2023/12/24 01:20:40;;;;;;;22.10;3.83;;;9.10;99.90;;;;;;5075042;28;20063;-68
2023/12/24 01:23:06;;;;;;;17.35;4.30;;;9.10;99.90;;;;;;5058022;28;20134;-68
2023/12/24 01:25:31;;;;;;;19.50;3.88;;;9.10;99.90;;;;;;5076227;28;20064;-68
2023/12/24 01:27:57;;;;;;;16.33;3.33;;;9.10;99.90;;;;;;5076173;28;20036;-68
2023/12/24 01:30:23;;;;;;;20.55;3.90;;;9.10;99.90;;;;;;5074634;28;20507;-68
2023/12/24 01:32:48;;;;;;;20.92;3.40;;;9.10;99.90;;;;;;5074552;28;20043;-68
2023/12/24 01:35:14;;;;;;;20.75;3.63;;;9.10;99.90;;;;;;5076106;28;20041;-68
2023/12/24 01:37:39;;;;;;;20.63;3.47;;;9.10;99.90;;;;;;5074798;28;20082;-68
2023/12/24 01:40:05;;;;;;;18.75;3.22;;;9.00;99.90;;;;;;5075953;28;20554;-68
2023/12/24 01:42:31;;;;;;;15.77;2.67;;;9.10;99.90;;;;;;5075540;28;20455;-68
2023/12/24 01:44:57;;;;;;;14.85;3.05;;;9.10;99.90;;;;;;5074416;28;20040;-68
2023/12/24 01:47:22;;;;;;;15.68;2.95;;;9.10;99.90;;;;;;5075819;28;20397;-68
2023/12/24 01:49:49;;;;;;;16.23;2.90;;;9.00;99.90;;;;;;5075800;28;20086;-68
2023/12/24 01:52:16;;;;;;;16.70;3.20;;;9.10;99.90;;;;;;5074270;28;20112;-68
2023/12/24 01:54:42;;;;;;;13.50;2.45;;;9.00;99.90;;;;;;5074181;28;20119;-68
2023/12/24 01:57:08;;;;;;;13.15;2.60;;;9.00;99.90;;;;;;5074157;28;20045;-68
2023/12/24 01:59:34;;;;;;;12.65;2.70;;;9.00;99.90;;;;;;5074128;28;20086;-68
2023/12/24 02:02:02;;;;;;;12.45;2.00;;;9.00;99.90;;;;;;5073879;28;20080;-68
2023/12/24 02:04:27;;;;;;;10.73;1.77;;;9.10;99.90;;;;;;5075518;28;20041;-68
2023/12/24 02:06:53;;;;;;;14.93;2.42;;;9.10;99.90;;;;;;5075481;28;20043;-68
2023/12/24 02:09:18;;;;;;;14.00;2.80;;;9.10;99.90;;;;;;5074234;28;20512;-68
2023/12/24 02:11:44;;;;;;;10.93;2.22;;;9.10;99.90;;;;;;5073847;28;20413;-68
2023/12/24 02:14:09;;;;;;;9.88;2.38;;;9.00;99.90;;;;;;5073662;28;20076;-68
2023/12/24 02:16:39;;;;;;;9.93;2.10;;;9.00;99.90;;;;;;5073767;28;20044;-68
2023/12/24 02:19:06;;;;;;;11.43;2.80;;;9.00;99.90;;;;;;5074077;28;20048;-68
2023/12/24 02:21:31;;;;;;;10.45;2.20;;;9.10;99.90;;;;;;5075179;28;20051;-68
2023/12/24 02:23:57;;;;;;;9.40;1.77;;;9.00;99.90;;;;;;5073955;28;20115;-68
2023/12/24 02:27:00;;;;;;;15.27;2.80;;;9.10;99.90;;;;;;5073586;28;20039;-68
2023/12/24 02:29:34;;;;;;;16.80;2.88;;;9.10;99.90;;;;;;5073600;28;20040;-68
2023/12/24 02:32:08;;;;;;;11.88;3.03;;;9.10;99.90;;;;;;5073437;28;20044;-68
2023/12/24 02:34:35;;;;;;;14.30;3.22;;;9.20;99.90;;;;;;5075031;28;20471;-68
2023/12/24 02:37:02;;;;;;;11.95;2.95;;;9.20;99.90;;;;;;5074931;28;20071;-68
2023/12/24 02:39:27;;;;;;;17.67;3.72;;;9.10;99.90;;;;;;5074862;28;20036;-68
2023/12/24 02:41:53;;;;;;;14.77;2.88;;;9.20;99.90;;;;;;5074730;28;20117;-70
2023/12/24 02:44:18;;;;;;;11.88;3.00;;;9.20;99.90;;;;;;5073352;28;20052;-69
2023/12/24 02:46:44;;;;;;;12.15;3.33;;;9.10;99.90;;;;;;5073463;28;20489;-68
2023/12/24 02:49:10;;;;;;;12.90;3.00;;;9.20;99.90;;;;;;5073179;28;20485;-68
2023/12/24 02:51:35;;;;;;;10.55;2.70;;;9.10;99.90;;;;;;5073035;28;20043;-68
2023/12/24 02:54:01;;;;;;;13.00;2.85;;;9.20;99.90;;;;;;5074544;28;20036;-68
2023/12/24 02:56:26;;;;;;;9.50;2.00;;;9.10;99.90;;;;;;5074495;28;20434;-68
2023/12/24 02:58:52;;;;;;;11.25;2.17;;;9.10;99.90;;;;;;5073240;28;20040;-68
2023/12/24 03:01:17;;;;;;;8.38;2.47;;;9.10;99.90;;;;;;5056195;28;20086;-68
2023/12/24 03:03:43;;;;;;;6.25;2.00;;;9.10;99.90;;;;;;5073863;28;20040;-68
2023/12/24 03:06:08;;;;;;;9.25;1.75;;;9.10;99.90;;;;;;5072853;28;20053;-68
2023/12/24 03:08:34;;;;;;;5.53;1.95;;;9.10;99.90;;;;;;5072763;28;20074;-68
2023/12/24 03:11:02;;;;;;;9.07;2.05;;;9.10;99.90;;;;;;5072715;28;20040;-68
2023/12/24 03:13:28;;;;;;;7.30;2.10;;;9.10;99.90;;;;;;5074164;28;20115;-68
2023/12/24 03:15:54;;;;;;;8.65;2.25;;;9.10;99.90;;;;;;5073804;28;20129;-68
2023/12/24 03:18:19;;;;;;;6.25;2.30;;;9.10;99.90;;;;;;5072618;28;20051;-68
2023/12/24 03:20:45;;;;;;;8.55;2.63;;;9.10;99.90;;;;;;5074012;28;20040;-68
2023/12/24 03:23:10;;;;;;;7.30;2.20;;;9.10;99.90;;;;;;5073846;28;20041;-68
2023/12/24 03:25:36;;;;;;;8.95;2.53;;;9.10;99.90;;;;;;5073202;28;20112;-68
2023/12/24 03:28:02;;;;;;;5.38;1.42;;;9.10;99.90;;;;;;5073898;28;20048;-68
2023/12/24 03:30:28;;;;;;;7.38;1.60;;;9.20;99.90;;;;;;5072394;28;20040;-68
2023/12/24 03:32:54;;;;;;;10.50;2.25;;;9.10;99.90;;;;;;5073473;28;20039;-68
2023/12/24 03:35:20;;;;;;;11.82;2.20;;;9.20;99.90;;;;;;5072295;28;20040;-68
2023/12/24 03:37:46;;;;;;;7.70;2.10;;;9.10;99.90;;;;;;5072224;28;20056;-68
2023/12/24 03:40:12;;;;;;;7.85;1.88;;;9.20;99.90;;;;;;5072247;28;20072;-68
2023/12/24 03:42:37;;;;;;;10.10;2.40;;;9.10;99.90;;;;;;5072136;28;20040;-69
2023/12/24 03:45:03;;;;;;;8.35;2.20;;;9.20;99.90;;;;;;5073578;28;20037;-69
2023/12/24 03:47:29;;;;;;;7.53;2.10;;;9.20;99.90;;;;;;5073323;28;20489;-69
2023/12/24 03:49:54;;;;;;;8.63;2.78;;;9.20;99.90;;;;;;5073659;28;20043;-69
2023/12/24 03:52:20;;;;;;;12.13;2.40;;;9.20;99.90;;;;;;5071963;28;20393;-69
2023/12/24 03:54:46;;;;;;;11.77;2.90;;;9.20;99.90;;;;;;5073592;28;20051;-69
2023/12/24 03:57:11;;;;;;;7.50;2.88;;;9.20;99.90;;;;;;5071966;28;20040;-69
2023/12/24 03:59:38;;;;;;;6.30;2.42;;;9.20;99.90;;;;;;5072216;28;20051;-69
2023/12/24 04:02:04;;;;;;;8.95;2.50;;;9.20;99.90;;;;;;5073222;28;20090;-69
2023/12/24 04:04:29;;;;;;;6.43;2.60;;;9.30;99.90;;;;;;5073407;28;20510;-69
2023/12/24 04:06:55;;;;;;;7.57;2.17;;;9.20;99.90;;;;;;5073410;28;20044;-69
2023/12/24 04:09:21;;;;;;;7.05;1.77;;;9.20;99.90;;;;;;5071894;28;20036;-69
2023/12/24 04:11:50;;;;;;;3.25;1.20;;;9.30;99.90;;;;;;5071827;28;20085;-69
2023/12/24 04:14:16;;;;;;;7.55;1.55;;;9.30;99.90;;;;;;5073094;28;20105;-69
2023/12/24 04:16:42;;;;;;;6.25;1.58;;;9.30;99.90;;;;;;5071863;28;20072;-69
2023/12/24 04:19:07;;;;;;;4.60;1.42;;;9.20;99.90;;;;;;5072088;28;20052;-69
2023/12/24 04:21:33;;;;;;;6.88;1.38;;;9.30;99.90;;;;;;5071695;28;20036;-69
2023/12/24 04:23:59;;;;;;;5.32;1.33;;;9.30;99.90;;;;;;5071680;28;20044;-69
2023/12/24 04:26:25;;;;;;;5.97;1.55;;;9.30;99.90;;;;;;5071705;28;20032;-69
2023/12/24 04:28:52;;;;;;;4.32;1.40;;;9.30;99.90;;;;;;5073184;28;20028;-69
2023/12/24 04:31:18;;;;;;;3.38;1.50;;;9.30;99.90;;;;;;5071619;28;20090;-69
2023/12/24 04:33:44;;;;;;;6.68;1.45;;;9.30;99.90;;;;;;5073168;28;20067;-69
2023/12/24 04:36:17;;;;;;;3.72;1.38;;;9.30;99.90;;;;;;5072923;28;20496;-69
2023/12/24 04:38:43;;;;;;;4.65;1.60;;;9.30;99.90;;;;;;5075707;28;20055;-69
2023/12/24 04:41:15;;;;;;;3.28;1.40;;;9.30;99.90;;;;;;5075824;28;20041;-68
2023/12/24 04:43:41;;;;;;;3.53;1.45;;;9.30;99.90;;;;;;5075755;28;20067;-68
2023/12/24 04:46:07;;;;;;;3.10;1.20;;;9.30;99.90;;;;;;5075503;28;20489;-68
2023/12/24 04:48:33;;;;;;;3.22;1.23;;;9.30;99.90;;;;;;5077011;28;20072;-68
2023/12/24 04:50:58;;;;;;;3.78;1.13;;;9.30;99.90;;;;;;5075401;28;20437;-68
2023/12/24 04:53:24;;;;;;;3.03;1.17;;;9.30;99.90;;;;;;5076835;28;20049;-68
2023/12/24 04:55:49;;;;;;;4.07;1.45;;;9.30;99.90;;;;;;5075334;28;20044;-68
2023/12/24 04:58:15;;;;;;;4.32;1.40;;;9.40;99.90;;;;;;5075303;28;20072;-68
2023/12/24 05:00:41;;;;;;;3.33;1.55;;;9.30;99.90;;;;;;5075225;28;20072;-68
2023/12/24 05:03:06;;;;;;;3.30;1.63;;;9.40;99.90;;;;;;5074908;28;20044;-68
2023/12/24 05:05:32;;;;;;;4.60;2.00;;;9.40;99.90;;;;;;5076373;28;20049;-68
2023/12/24 05:07:57;;;;;;;6.93;1.90;;;9.40;99.90;;;;;;5076261;28;20043;-68
2023/12/24 05:10:23;;;;;;;4.10;2.10;;;9.40;99.90;;;;;;5075032;28;20069;-69
2023/12/24 05:12:49;;;;;;;4.15;2.17;;;9.40;99.90;;;;;;5075149;28;20078;-69
2023/12/24 05:15:16;;;;;;;4.30;2.00;;;9.40;99.90;;;;;;5058303;28;20041;-69
2023/12/24 05:17:42;;;;;;;5.75;2.15;;;9.40;99.90;;;;;;5074916;28;20501;-69
2023/12/24 05:20:08;;;;;;;5.28;2.03;;;9.40;99.90;;;;;;5076046;28;20051;-69
2023/12/24 05:22:34;;;;;;;4.80;2.45;;;9.40;99.90;;;;;;5058104;28;20072;-69
2023/12/24 05:24:59;;;;;;;4.72;1.70;;;9.50;99.90;;;;;;5074793;28;20075;-69
2023/12/24 05:27:26;;;;;;;4.82;1.80;;;9.50;99.90;;;;;;5076215;28;20374;-69
2023/12/24 05:29:52;;;;;;;3.80;1.92;;;9.50;99.90;;;;;;5074731;28;20044;-69
2023/12/24 05:32:17;;;;;;;4.38;2.00;;;9.50;99.90;;;;;;5075388;28;20033;-69
2023/12/24 05:34:43;;;;;;;5.35;1.77;;;9.50;99.90;;;;;;5076112;28;20075;-69
2023/12/24 05:37:09;;;;;;;7.40;1.88;;;9.60;99.90;;;;;;5074827;28;20071;-69
2023/12/24 05:39:34;;;;;;;5.93;2.15;;;9.60;99.90;;;;;;5076005;28;20416;-69
2023/12/24 05:42:00;;;;;;;4.53;2.05;;;9.60;99.90;;;;;;5074622;28;20044;-69
2023/12/24 05:44:25;;;;;;;6.03;2.30;;;9.60;99.90;;;;;;5074379;28;20408;-68
2023/12/24 05:46:51;;;;;;;5.95;2.10;;;9.60;99.90;;;;;;5075845;28;20037;-68
2023/12/24 05:49:17;;;;;;;6.93;2.55;;;9.70;99.90;;;;;;5075104;28;20040;-69
2023/12/24 05:51:43;;;;;;;9.05;2.80;;;9.60;99.90;;;;;;5075726;28;20047;-69
2023/12/24 05:54:09;;;;;;;8.82;2.83;;;9.70;99.90;;;;;;5075500;28;20094;-69
2023/12/24 05:56:34;;;;;;;9.52;2.95;;;9.70;99.90;;;;;;5075411;28;20072;-69
2023/12/24 05:59:00;;;;;;;8.75;2.80;;;9.70;99.90;;;;;;5074186;28;20052;-69
2023/12/24 06:01:25;;;;;;;8.38;3.00;;;9.70;99.90;;;;;;5073970;28;20076;-69
2023/12/24 06:03:51;;;;;;;6.47;3.03;;;9.80;99.90;;;;;;5075193;28;20044;-69
2023/12/24 06:06:17;;;;;;;9.30;3.33;;;9.80;99.90;;;;;;5075523;28;20037;-69
2023/12/24 06:08:42;;;;;;;11.00;3.22;;;9.80;99.90;;;;;;5074019;28;20072;-69
2023/12/24 06:11:17;;;;;;;11.10;3.67;;;9.80;99.90;;;;;;5073845;28;20076;-69
2023/12/24 06:13:43;;;;;;;8.02;3.80;;;9.80;99.90;;;;;;5073977;28;20048;-68
2023/12/24 06:16:11;;;;;;;9.20;3.65;;;9.90;99.90;;;;;;5073863;28;20052;-68
2023/12/24 06:18:37;;;;;;;12.43;3.05;;;9.90;99.90;;;;;;5075315;28;20105;-68
2023/12/24 06:21:04;;;;;;;14.88;3.70;;;9.80;99.90;;;;;;5073732;28;20435;-68
2023/12/24 06:23:31;;;;;;;16.65;4.18;;;9.90;99.90;;;;;;5075161;28;20044;-68
2023/12/24 06:25:58;;;;;;;14.95;4.57;;;9.90;99.90;;;;;;5075163;28;20489;-68
2023/12/24 06:28:24;;;;;;;10.98;4.10;;;10.00;99.90;;;;;;5056940;28;20032;-69
2023/12/24 06:30:49;;;;;;;16.80;3.80;;;10.00;99.90;;;;;;5074633;28;20175;-69
2023/12/24 06:33:15;;;;;;;14.48;4.70;;;10.00;99.90;;;;;;5074987;28;20392;-69
2023/12/24 06:35:41;;;;;;;14.77;4.93;;;9.90;99.90;;;;;;5074987;28;20098;-69
2023/12/24 06:38:06;;;;;;;13.32;4.32;;;10.00;99.90;;;;;;5073667;28;20126;-69
2023/12/24 06:40:33;;;;;;;21.15;4.43;;;10.00;99.90;;;;;;5073375;28;20492;-69
2023/12/24 06:42:59;;;;;;;14.48;4.43;;;10.00;99.90;;;;;;5073525;28;20121;-69
2023/12/24 06:45:25;;;;;;;18.48;4.70;;;10.10;99.90;;;;;;5074714;28;20124;-69
2023/12/24 06:47:50;;;;;;;22.25;4.80;;;10.10;99.90;;;;;;5056553;28;20046;-69
2023/12/24 06:50:16;;;;;;;24.65;4.57;;;10.10;99.90;;;;;;5073177;28;20079;-69
2023/12/24 06:52:41;;;;;;;18.13;4.63;;;10.10;99.90;;;;;;5074520;28;20036;-69
2023/12/24 06:55:07;;;;;;;14.75;4.55;;;10.20;99.90;;;;;;5074594;28;20086;-69
2023/12/24 06:57:33;;;;;;;22.85;4.30;;;10.10;99.90;;;;;;5073018;28;20037;-69
2023/12/24 06:59:58;;;;;;;16.20;4.35;;;10.20;99.90;;;;;;5073191;28;20052;-69
2023/12/24 07:02:24;;;;;;;18.15;4.60;;;10.20;99.90;;;;;;5074111;28;20041;-69
2023/12/24 07:04:50;;;;;;;20.85;4.88;;;10.20;99.90;;;;;;5074313;28;20562;-69
2023/12/24 07:07:15;;;;;;;15.05;4.30;;;10.20;99.90;;;;;;5073058;28;20036;-69
2023/12/24 07:09:41;;;;;;;22.33;4.32;;;10.30;99.90;;;;;;5074319;28;20461;-69
2023/12/24 07:12:07;;;;;;;19.63;4.50;;;10.20;99.90;;;;;;5074171;28;20040;-69
2023/12/24 07:14:32;;;;;;;20.90;4.50;;;10.20;99.90;;;;;;5074166;28;20053;-69
2023/12/24 07:16:58;;;;;;;18.48;4.57;;;10.30;99.90;;;;;;5073895;28;20047;-69
2023/12/24 07:19:23;;;;;;;19.38;4.45;;;10.30;99.90;;;;;;5072574;28;20047;-69
2023/12/24 07:21:49;;;;;;;19.42;4.40;;;10.30;99.90;;;;;;5074013;28;20051;-68
2023/12/24 07:24:15;;;;;;;27.35;5.15;;;10.30;99.90;;;;;;5073641;28;20048;-70
2023/12/24 07:26:40;;;;;;;19.13;4.30;;;10.30;99.90;;;;;;5073938;28;20057;-69
2023/12/24 07:29:06;;;;;;;18.38;4.38;;;10.30;99.90;;;;;;5072653;28;20037;-69
2023/12/24 07:31:31;;;;;;;19.02;4.78;;;10.30;99.90;;;;;;5073526;28;20033;-69
2023/12/24 07:33:57;;;;;;;20.67;4.82;;;10.20;99.90;;;;;;5072340;28;20047;-72
2023/12/24 07:36:23;;;;;;;24.35;5.50;;;10.40;99.90;;;;;;5072654;28;20051;-69
2023/12/24 07:38:49;;;;;;;25.80;5.13;;;10.30;99.90;;;;;;5073508;28;20400;-69
2023/12/24 07:41:14;;;;;;;23.48;5.25;;;10.40;99.90;;;;;;5073714;28;20040;-69
2023/12/24 07:43:40;;;;;;;25.38;4.80;;;10.30;99.90;;;;;;5072120;28;20131;-69
2023/12/24 07:46:06;;;;;;;23.33;4.93;;;10.30;99.90;;;;;;5073669;28;20047;-69
2023/12/24 07:48:32;;;;;;;27.33;5.60;;;10.40;99.90;;;;;;5073618;28;20055;-69
2023/12/24 07:50:57;;;;;;;23.15;4.85;;;10.40;99.90;;;;;;5073615;28;20489;-69
2023/12/24 07:53:23;;;;;;;22.67;5.53;;;10.40;99.90;;;;;;5072289;28;20145;-69
2023/12/24 07:55:49;;;;;;;23.33;5.28;;;10.40;99.90;;;;;;5072415;28;20587;-69
2023/12/24 07:58:14;;;;;;;23.80;6.03;;;10.50;99.90;;;;;;5072043;28;20456;-69
2023/12/24 08:00:40;;;;;;;23.90;5.80;;;10.40;99.90;;;;;;5073425;28;20075;-69
2023/12/24 08:03:06;;;;;;;23.85;5.47;;;10.40;99.90;;;;;;5071797;28;20040;-69
2023/12/24 08:05:31;;;;;;;21.85;5.78;;;10.50;99.90;;;;;;5073382;28;20133;-69
2023/12/24 08:07:57;;;;;;;27.05;6.97;;;10.50;99.90;;;;;;5071907;28;20408;-69
2023/12/24 08:10:23;;;;;;;28.10;5.40;;;10.40;99.90;;;;;;5071521;28;20072;-69
2023/12/24 08:12:48;;;;;;;23.10;6.13;;;10.50;99.90;;;;;;5071780;28;20040;-69
2023/12/24 08:15:14;;;;;;;31.02;6.13;;;10.50;99.90;;;;;;5071825;28;20123;-69
2023/12/24 08:17:43;;;;;;;25.70;6.57;;;10.50;99.90;;;;;;5071836;28;20045;-69
2023/12/24 08:20:09;;;;;;;30.60;6.57;;;10.50;99.90;;;;;;5071922;28;20059;-69
2023/12/24 08:22:36;;;;;;;23.20;6.30;;;10.60;99.90;;;;;;5072216;28;20044;-69
2023/12/24 08:25:02;;;;;;;27.67;6.78;;;10.60;99.90;;;;;;5071650;28;20546;-69
2023/12/24 08:27:28;;;;;;;29.48;6.80;;;10.50;99.90;;;;;;5071733;28;20040;-69
2023/12/24 08:29:55;;;;;;;27.70;6.40;;;10.60;99.90;;;;;;5073552;28;20560;-69
2023/12/24 08:32:21;;;;;;;23.48;5.60;;;10.50;99.90;;;;;;5072144;28;20049;-69
2023/12/24 08:34:47;;;;;;;25.17;5.40;;;10.50;99.90;;;;;;5072869;28;20538;-69
2023/12/24 08:37:13;;;;;;;25.30;6.15;;;10.50;99.90;;;;;;5073144;28;20036;-69
2023/12/24 08:39:38;;;;;;;21.90;5.90;;;10.50;99.90;;;;;;5073110;28;20040;-69
2023/12/24 08:42:04;;;;;;;30.27;6.25;;;10.50;99.90;;;;;;5073014;28;20068;-69
2023/12/24 08:44:30;;;;;;;26.95;6.22;;;10.50;99.90;;;;;;5072973;28;20197;-69
2023/12/24 08:46:55;;;;;;;25.45;5.88;;;10.50;99.90;;;;;;5072766;28;20184;-69
2023/12/24 08:49:21;;;;;;;31.83;6.45;;;10.50;99.90;;;;;;5072699;28;20029;-68
2023/12/24 08:51:47;;;;;;;23.63;5.60;;;10.50;99.90;;;;;;5071676;28;20094;-69
2023/12/24 08:54:12;;;;;;;28.75;6.07;;;10.50;99.90;;;;;;5071737;28;20072;-72
2023/12/24 08:56:38;;;;;;;29.02;6.07;;;10.50;99.90;;;;;;5072901;28;20497;-71
2023/12/24 08:59:07;;;;;;;25.48;5.30;;;10.50;99.90;;;;;;5071746;28;20043;-72
2023/12/24 09:01:33;;;;;;;32.72;5.47;;;10.60;99.90;;;;;;5071167;28;20041;-72
2023/12/24 09:03:59;;;;;;;25.90;5.13;;;10.60;99.90;;;;;;5071540;28;20044;-72
2023/12/24 09:06:24;;;;;;;28.40;5.70;;;10.50;99.90;;;;;;5072853;28;20485;-72
2023/12/24 09:08:50;;;;;;;25.63;4.90;;;10.60;99.90;;;;;;5072896;28;20040;-72
2023/12/24 09:11:16;;;;;;;19.20;5.18;;;10.60;99.90;;;;;;5071239;28;20037;-72
2023/12/24 09:13:41;;;;;;;30.58;5.30;;;10.60;99.90;;;;;;5072767;28;20040;-71
2023/12/24 09:16:07;;;;;;;21.38;5.75;;;10.60;99.90;;;;;;5071485;28;20041;-71
2023/12/24 09:18:33;;;;;;;30.20;5.18;;;10.60;99.90;;;;;;5071196;28;20123;-71
2023/12/24 09:20:58;;;;;;;21.35;5.70;;;10.60;99.90;;;;;;5072773;28;20040;-71
2023/12/24 09:23:24;;;;;;;19.60;4.78;;;10.60;99.90;;;;;;5073664;28;20056;-71
2023/12/24 09:25:50;;;;;;;25.98;5.70;;;10.60;99.90;;;;;;5074790;28;20041;-71
2023/12/24 09:28:15;;;;;;;23.95;5.82;;;10.60;99.90;;;;;;5074757;28;20036;-71
2023/12/24 09:30:41;;;;;;;28.50;5.53;;;10.60;99.90;;;;;;5074719;28;20037;-71
2023/12/24 09:33:06;;;;;;;26.00;6.13;;;10.60;99.90;;;;;;5074879;28;20067;-71
2023/12/24 09:35:32;;;;;;;24.58;5.57;;;10.70;99.90;;;;;;5076074;28;20504;-71
2023/12/24 09:37:59;;;;;;;16.70;4.80;;;10.70;99.90;;;;;;5076142;28;20081;-71
2023/12/24 09:40:24;;;;;;;22.10;5.55;;;10.70;99.90;;;;;;5074622;28;20044;-71
2023/12/24 09:42:50;;;;;;;23.83;5.30;;;10.70;99.90;;;;;;5074678;28;20052;-71
2023/12/24 09:45:16;;;;;;;20.55;4.68;;;10.70;99.90;;;;;;5074415;28;20417;-71
2023/12/24 09:47:42;;;;;;;21.88;5.28;;;10.80;99.90;;;;;;5075976;28;20032;-71
2023/12/24 09:50:07;;;;;;;22.02;4.40;;;10.80;99.90;;;;;;5075668;28;20044;-71
2023/12/24 09:52:34;;;;;;;25.38;4.38;;;10.80;99.90;;;;;;5075805;28;20036;-71
2023/12/24 09:55:00;;;;;;;20.27;4.55;;;10.90;99.90;;;;;;5075841;28;20040;-71
2023/12/24 09:57:25;;;;;;;20.27;3.97;;;10.80;99.90;;;;;;5075775;28;20382;-71
2023/12/24 09:59:51;;;;;;;17.50;4.65;;;10.90;99.90;;;;;;5074223;28;20047;-71
2023/12/24 10:02:16;;;;;;;16.90;4.10;;;10.90;99.90;;;;;;5074254;28;20037;-72
2023/12/24 10:04:42;;;;;;;21.88;4.28;;;11.00;99.90;;;;;;5074913;28;20048;-71
2023/12/24 10:07:09;;;;;;;18.77;3.97;;;11.00;99.90;;;;;;5057706;28;20071;-71
2023/12/24 10:09:47;;;;;;;24.65;4.68;;;11.00;99.90;;;;;;5074416;28;20031;-71
2023/12/24 10:12:12;;;;;;;24.80;4.93;;;11.00;99.90;;;;;;5073993;28;20496;-71
2023/12/24 10:14:39;;;;;;;20.15;4.13;;;11.10;99.90;;;;;;5075620;28;20078;-71
2023/12/24 10:17:05;;;;;;;22.40;4.30;;;11.10;99.90;;;;;;5057315;28;20036;-72
2023/12/24 10:19:31;;;;;;;23.73;4.68;;;11.00;99.90;;;;;;5057206;28;20040;-72
2023/12/24 10:22:08;;;;;;;16.70;3.80;;;11.10;99.90;;;;;;5074150;28;20099;-72
2023/12/24 10:24:38;;;;;;;19.08;3.80;;;11.00;99.90;;;;;;5073822;28;20041;-71
2023/12/24 10:27:11;;;;;;;16.77;3.42;;;11.10;99.90;;;;;;5075394;28;20078;-72
2023/12/24 10:29:41;;;;;;;19.63;4.38;;;11.10;99.90;;;;;;5073815;28;20036;-72
2023/12/24 10:32:10;;;;;;;15.32;3.33;;;11.10;99.90;;;;;;5057306;28;20123;-72
2023/12/24 10:34:37;;;;;;;22.85;3.60;;;11.20;99.90;;;;;;5056970;28;20041;-72
2023/12/24 10:37:21;;;;;;;22.15;3.60;;;11.10;99.90;;;;;;5073857;28;20063;-72
2023/12/24 10:39:49;;;;;;;23.63;3.45;;;11.20;99.90;;;;;;5056736;28;20515;-71
2023/12/24 10:42:15;;;;;;;16.92;3.58;;;11.20;99.90;;;;;;5073629;28;20040;-71
2023/12/24 10:44:41;;;;;;;15.25;2.63;;;11.20;99.90;;;;;;5056597;28;20481;-71
2023/12/24 10:47:07;;;;;;;16.13;2.90;;;11.30;99.90;;;;;;5073325;28;20045;-71
2023/12/24 10:49:34;;;;;;;19.15;3.83;;;11.30;99.90;;;;;;5074055;28;20081;-71
2023/12/24 10:51:59;;;;;;;16.80;3.17;;;11.30;99.90;;;;;;5074600;28;20044;-71
2023/12/24 10:54:26;;;;;;;17.38;3.05;;;11.40;99.90;;;;;;5073360;28;20041;-71
2023/12/24 10:57:11;;;;;;;15.88;3.25;;;11.40;99.90;;;;;;5056619;28;20519;-71
2023/12/24 11:00:14;;;;;;;19.92;3.97;;;11.40;99.90;;;;;;5072994;28;20044;-71
2023/12/24 11:02:44;;;;;;;21.48;3.42;;;11.50;99.90;;;;;;5072830;28;20493;-71
2023/12/24 11:05:10;;;;;;;16.55;3.58;;;11.40;99.90;;;;;;5056198;28;20047;-71
2023/12/24 11:07:47;;;;;;;14.00;2.92;;;11.50;99.90;;;;;;5074437;28;20411;-72
2023/12/24 11:10:43;;;;;;;20.35;3.40;;;11.50;99.90;;;;;;5074349;28;20048;-72
2023/12/24 11:13:31;;;;;;;18.02;3.65;;;11.50;99.90;;;;;;5055485;28;20576;-72
2023/12/24 11:16:02;;;;;;;16.33;2.85;;;11.50;99.90;;;;;;5055203;28;20040;-72
2023/12/24 11:18:44;;;;;;;17.50;3.45;;;11.50;99.90;;;;;;5055670;28;20087;-72
2023/12/24 11:21:11;;;;;;;18.67;3.63;;;11.50;99.90;;;;;;5071766;28;20044;-72
2023/12/24 11:23:38;;;;;;;13.90;2.45;;;11.50;99.90;;;;;;5071684;28;20433;-71
2023/12/24 11:26:30;;;;;;;18.45;3.80;;;11.50;99.90;;;;;;5054929;28;20123;-71
2023/12/24 11:29:00;;;;;;;13.57;2.90;;;11.50;99.90;;;;;;5071689;28;20076;-72
2023/12/24 11:31:26;;;;;;;15.52;3.05;;;11.40;99.90;;;;;;5071547;28;20075;-72
2023/12/24 11:33:56;;;;;;;24.50;3.70;;;11.50;99.90;;;;;;5071643;28;20165;-72
2023/12/24 11:36:23;;;;;;;15.18;3.50;;;11.50;99.90;;;;;;5071538;28;20141;-72
2023/12/24 11:38:59;;;;;;;16.67;2.95;;;11.60;99.90;;;;;;5071525;28;20036;-72
2023/12/24 11:41:25;;;;;;;20.23;2.97;;;11.50;99.90;;;;;;5054611;28;20139;-72
2023/12/24 11:43:58;;;;;;;20.17;2.78;;;11.50;99.90;;;;;;5038332;28;20089;-72
2023/12/24 11:46:25;;;;;;;14.90;3.33;;;11.60;99.90;;;;;;5054046;28;20124;-72
2023/12/24 11:48:52;;;;;;;15.45;3.00;;;11.50;99.90;;;;;;5056459;28;20052;-72
2023/12/24 11:51:23;;;;;;;11.77;3.13;;;11.50;99.90;;;;;;5055695;28;20059;-71
2023/12/24 11:53:49;;;;;;;16.35;2.90;;;11.50;99.90;;;;;;5072740;28;20181;-72
2023/12/24 11:56:18;;;;;;;19.05;3.90;;;11.60;99.90;;;;;;5072586;28;20040;-72
2023/12/24 11:58:50;;;;;;;18.52;3.30;;;11.60;99.90;;;;;;5072940;28;20189;-72
2023/12/24 12:01:24;;;;;;;21.83;4.35;;;11.60;99.90;;;;;;5074236;28;20044;-72
2023/12/24 12:03:58;;;;;;;16.73;4.00;;;11.50;99.90;;;;;;5072105;28;20170;-72
2023/12/24 12:06:28;;;;;;;17.20;2.97;;;11.60;99.90;;;;;;5073477;28;20124;-71
2023/12/24 12:08:56;;;;;;;17.80;3.72;;;11.60;99.90;;;;;;5071976;28;20048;-71
2023/12/24 12:11:21;;;;;;;14.63;3.50;;;11.50;99.90;;;;;;5073453;28;20037;-71
2023/12/24 12:13:47;;;;;;;18.83;3.40;;;11.50;99.90;;;;;;5073352;28;20393;-71
2023/12/24 12:16:13;;;;;;;20.45;3.28;;;11.60;99.90;;;;;;5073171;28;20040;-71
2023/12/24 12:18:39;;;;;;;18.70;3.67;;;11.60;99.90;;;;;;5073314;28;20082;-71
2023/12/24 12:21:04;;;;;;;17.60;3.97;;;11.60;99.90;;;;;;5072079;28;20044;-71
2023/12/24 12:23:30;;;;;;;20.05;3.70;;;11.50;99.90;;;;;;5071849;28;20543;-71
2023/12/24 12:25:56;;;;;;;17.85;3.90;;;11.50;99.90;;;;;;5071804;28;20036;-71
2023/12/24 12:28:22;;;;;;;15.93;4.05;;;11.60;99.90;;;;;;5073015;28;20033;-71
2023/12/24 12:30:48;;;;;;;20.92;3.45;;;11.50;99.90;;;;;;5073286;28;20040;-71
2023/12/24 12:33:14;;;;;;;18.80;3.17;;;11.50;99.90;;;;;;5072190;28;20135;-73
2023/12/24 12:35:39;;;;;;;16.33;4.15;;;11.50;99.90;;;;;;5073460;28;20036;-73
2023/12/24 12:38:05;;;;;;;17.40;3.50;;;11.50;99.90;;;;;;5071953;28;20075;-73
2023/12/24 12:40:31;;;;;;;17.35;3.58;;;11.50;99.90;;;;;;5071698;28;20056;-73
2023/12/24 12:42:57;;;;;;;24.35;3.88;;;11.50;99.90;;;;;;5071609;28;20048;-73